createdAt,value
2023-04-10T00:03:02.271Z,68.10
2023-04-10T00:06:07.694Z,62.90
2023-04-10T00:09:12.927Z,65.60
2023-04-10T00:12:17.208Z,67.70
2023-04-10T00:15:21.587Z,69.53
2023-04-10T00:18:25.893Z,69.85
2023-04-10T00:21:31.349Z,68.97
2023-04-10T00:24:35.746Z,67.70
2023-04-10T00:27:40.348Z,64.03
2023-04-10T00:30:44.613Z,65.95
2023-04-10T00:33:48.835Z,65.45
2023-04-10T00:36:53.446Z,59.30
2023-04-10T00:39:57.727Z,62.40
2023-04-10T00:43:02.128Z,73.78
2023-04-10T00:46:07.250Z,71.38
2023-04-10T00:49:11.920Z,62.42
2023-04-10T00:52:16.553Z,64.40
2023-04-10T00:55:21.189Z,63.25
2023-04-10T00:58:26.883Z,67.05
2023-04-10T01:01:31.518Z,64.47
2023-04-10T01:04:36.364Z,64.85
2023-04-10T01:08:05.163Z,67.20
2023-04-10T01:11:32.739Z,62.35
2023-04-10T01:15:12.913Z,61.50
2023-04-10T01:18:27.027Z,70.65
2023-04-10T01:21:36.169Z,67.53
2023-04-10T01:25:05.005Z,69.63
2023-04-10T01:28:47.099Z,66.45
2023-04-10T01:32:01.792Z,63.30
2023-04-10T01:35:08.889Z,67.45
2023-04-10T01:38:18.136Z,71.28
2023-04-10T01:41:24.047Z,67.93
2023-04-10T01:44:32.121Z,74.72
2023-04-10T01:47:36.952Z,67.00
2023-04-10T01:50:41.898Z,71.40
2023-04-10T01:53:47.265Z,68.45
2023-04-10T01:56:51.894Z,66.28
2023-04-10T01:59:56.699Z,63.72
2023-04-10T02:03:01.198Z,69.43
2023-04-10T02:06:50.507Z,62.55
2023-04-10T02:10:19.538Z,63.65
2023-04-10T02:13:27.775Z,65.15
2023-04-10T02:16:34.156Z,69.50
2023-04-10T02:19:40.292Z,65.55
2023-04-10T02:22:44.964Z,62.92
2023-04-10T02:25:49.503Z,60.08
2023-04-10T02:28:53.860Z,60.95
2023-04-10T02:31:57.949Z,66.30
2023-04-10T02:35:03.171Z,64.15
2023-04-10T02:38:08.058Z,63.53
2023-04-10T02:41:12.174Z,67.68
2023-04-10T02:44:16.432Z,64.03
2023-04-10T02:47:20.832Z,64.90
2023-04-10T02:50:25.593Z,62.05
2023-04-10T02:53:30.163Z,58.17
2023-04-10T02:56:35.140Z,63.55
2023-04-10T02:59:39.447Z,59.13
2023-04-10T03:02:44.030Z,54.28
2023-04-10T03:05:49.567Z,60.03
2023-04-10T03:08:54.469Z,58.13
2023-04-10T03:11:58.997Z,61.70
2023-04-10T03:15:03.488Z,53.50
2023-04-10T03:18:09.200Z,58.60
2023-04-10T03:21:13.939Z,59.95
2023-04-10T03:24:18.121Z,56.20
2023-04-10T03:27:22.697Z,58.58
2023-04-10T03:30:27.110Z,56.75
2023-04-10T03:33:31.233Z,55.58
2023-04-10T03:36:35.968Z,57.95
2023-04-10T03:39:40.672Z,59.58
2023-04-10T03:42:44.865Z,55.90
2023-04-10T03:45:49.193Z,54.47
2023-04-10T03:48:54.180Z,73.40
2023-04-10T03:51:58.584Z,61.25
2023-04-10T03:55:02.907Z,59.03
2023-04-10T03:58:07.514Z,56.13
2023-04-10T04:01:11.801Z,59.08
2023-04-10T04:04:16.032Z,55.08
2023-04-10T04:07:20.614Z,59.65
2023-04-10T04:10:25.135Z,59.95
2023-04-10T04:13:29.427Z,58.78
2023-04-10T04:16:33.839Z,54.25
2023-04-10T04:19:38.387Z,54.33
2023-04-10T04:22:42.918Z,61.13
2023-04-10T04:25:47.176Z,56.15
2023-04-10T04:28:51.604Z,52.78
2023-04-10T04:31:55.931Z,57.50
2023-04-10T04:35:00.403Z,58.38
2023-04-10T04:38:04.845Z,54.25
2023-04-10T04:41:09.461Z,50.72
2023-04-10T04:44:14.079Z,62.33
2023-04-10T04:47:18.459Z,53.70
2023-04-10T04:50:22.480Z,54.97
2023-04-10T04:53:26.916Z,56.10
2023-04-10T04:59:35.453Z,54.70
2023-04-10T05:02:39.834Z,53.58
2023-04-10T05:05:44.350Z,53.25
2023-04-10T05:08:48.821Z,54.20
2023-04-10T05:14:59.230Z,51.50
2023-04-10T05:18:03.834Z,53.92
2023-04-10T05:21:08.208Z,49.67
2023-04-10T05:27:18.328Z,44.40
2023-04-10T05:30:22.667Z,50.10
2023-04-10T05:33:26.875Z,51.33
2023-04-10T05:36:32.185Z,46.45
2023-04-10T05:39:36.369Z,46.38
2023-04-10T05:42:40.707Z,48.10
2023-04-10T05:45:45.389Z,44.25
2023-04-10T05:48:49.775Z,45.65
2023-04-10T05:51:54.155Z,45.80
2023-04-10T05:54:58.265Z,48.72
2023-04-10T05:58:02.664Z,48.08
2023-04-10T06:01:07.705Z,50.17
2023-04-10T06:04:12.056Z,48.20
2023-04-10T06:07:16.939Z,44.05
2023-04-10T06:10:21.412Z,49.13
2023-04-10T06:13:27.365Z,44.22
2023-04-10T06:16:31.600Z,40.60
2023-04-10T06:19:36.561Z,41.83
2023-04-10T06:22:41.068Z,45.53
2023-04-10T06:25:45.516Z,42.60
2023-04-10T06:28:49.897Z,45.13
2023-04-10T06:31:54.564Z,43.78
2023-04-10T06:34:58.887Z,43.97
2023-04-10T06:38:03.623Z,43.47
2023-04-10T06:41:08.153Z,39.53
2023-04-10T06:44:12.391Z,39.45
2023-04-10T06:47:18.305Z,37.67
2023-04-10T06:50:22.710Z,38.78
2023-04-10T06:53:27.288Z,40.95
2023-04-10T06:56:32.135Z,39.15
2023-04-10T06:59:36.822Z,37.72
2023-04-10T07:02:41.036Z,40.83
2023-04-10T07:05:45.467Z,40.70
2023-04-10T07:11:54.295Z,36.13
2023-04-10T07:14:58.900Z,36.88
2023-04-10T07:18:03.557Z,42.60
2023-04-10T07:21:14.696Z,35.58
2023-04-10T07:24:19.267Z,34.55
2023-04-10T07:27:24.831Z,37.00
2023-04-10T07:30:29.077Z,35.00
2023-04-10T07:33:33.688Z,33.65
2023-04-10T07:36:38.940Z,32.35
2023-04-10T07:39:43.352Z,34.45
2023-04-10T07:42:48.108Z,31.40
2023-04-10T07:45:52.895Z,34.35
2023-04-10T07:48:57.499Z,31.55
2023-04-10T07:52:01.783Z,31.02
2023-04-10T07:55:06.794Z,32.08
2023-04-10T07:58:11.372Z,30.08
2023-04-10T08:01:15.873Z,28.27
2023-04-10T08:04:20.099Z,28.27
2023-04-10T08:07:24.645Z,29.27
2023-04-10T08:10:29.128Z,27.33
2023-04-10T08:13:33.419Z,30.60
2023-04-10T08:19:43.567Z,29.55
2023-04-10T08:22:48.222Z,28.67
2023-04-10T08:25:52.354Z,25.17
2023-04-10T08:28:58.747Z,28.70
2023-04-10T08:32:02.879Z,28.25
2023-04-10T08:35:07.789Z,24.45
2023-04-10T08:38:14.421Z,26.33
2023-04-10T08:41:20.035Z,29.92
2023-04-10T08:44:24.372Z,24.13
2023-04-10T08:47:31.176Z,24.42
2023-04-10T08:50:43.180Z,27.40
2023-04-10T08:53:51.476Z,24.45
2023-04-10T08:56:56.805Z,23.70
2023-04-10T09:00:09.665Z,22.40
2023-04-10T09:03:25.587Z,21.38
2023-04-10T09:06:31.485Z,22.33
2023-04-10T09:09:36.313Z,21.52
2023-04-10T09:12:48.677Z,21.38
2023-04-10T09:16:00.331Z,21.65
2023-04-10T09:19:07.263Z,20.73
2023-04-10T09:22:12.973Z,21.80
2023-04-10T09:25:41.667Z,22.45
2023-04-10T09:29:06.221Z,19.00
2023-04-10T09:32:12.309Z,20.83
2023-04-10T09:35:16.684Z,18.27
2023-04-10T09:38:21.984Z,18.58
2023-04-10T09:41:26.097Z,22.83
2023-04-10T09:44:32.858Z,20.23
2023-04-10T09:47:37.890Z,16.20
2023-04-10T09:50:42.698Z,18.83
2023-04-10T09:53:50.887Z,16.98
2023-04-10T09:56:56.574Z,18.05
2023-04-10T10:00:05.166Z,15.02
2023-04-10T10:03:15.935Z,14.02
2023-04-10T10:06:21.732Z,17.35
2023-04-10T10:09:29.315Z,16.08
2023-04-10T10:12:50.482Z,15.10
2023-04-10T10:16:13.606Z,16.48
2023-04-10T10:19:36.461Z,13.73
2023-04-10T10:22:41.368Z,14.20
2023-04-10T10:25:46.754Z,13.70
2023-04-10T10:28:56.177Z,13.30
2023-04-10T10:32:02.926Z,13.77
2023-04-10T10:35:08.497Z,11.95
2023-04-10T10:38:13.687Z,10.98
2023-04-10T10:41:56.994Z,12.23
2023-04-10T10:45:16.956Z,13.23
2023-04-10T10:48:21.608Z,11.85
2023-04-10T10:51:51.812Z,10.50
2023-04-10T10:54:59.452Z,12.65
2023-04-10T10:58:09.752Z,13.90
2023-04-10T11:01:15.575Z,13.25
2023-04-10T11:04:48.684Z,9.63
2023-04-10T11:08:10.786Z,9.13
2023-04-10T11:11:23.539Z,11.25
2023-04-10T11:14:31.059Z,12.65
2023-04-10T11:17:49.708Z,10.70
2023-04-10T11:21:28.576Z,11.38
2023-04-10T11:24:57.842Z,8.95
2023-04-10T11:28:02.846Z,9.82
2023-04-10T11:31:22.800Z,10.77
2023-04-10T11:34:27.788Z,9.38
2023-04-10T11:37:32.146Z,8.02
2023-04-10T11:40:36.625Z,9.60
2023-04-10T11:43:41.241Z,8.23
2023-04-10T11:46:47.413Z,8.75
2023-04-10T11:49:55.839Z,8.00
2023-04-10T11:53:00.666Z,7.88
2023-04-10T11:56:07.575Z,8.20
2023-04-10T11:59:14.445Z,6.90
2023-04-10T12:02:19.022Z,7.82
2023-04-10T12:05:23.678Z,7.97
2023-04-10T12:08:37.763Z,7.93
2023-04-10T12:11:49.787Z,14.13
2023-04-10T12:14:54.535Z,10.73
2023-04-10T12:17:58.972Z,7.18
2023-04-10T12:21:05.508Z,8.10
2023-04-10T12:24:12.284Z,8.20
2023-04-10T12:27:25.591Z,8.38
2023-04-10T12:30:29.904Z,8.65
2023-04-10T12:33:34.377Z,7.60
2023-04-10T12:36:39.188Z,7.78
2023-04-10T12:39:43.980Z,6.75
2023-04-10T12:42:48.479Z,8.27
2023-04-10T12:45:52.672Z,8.95
2023-04-10T12:48:57.123Z,9.68
2023-04-10T12:52:01.907Z,9.65
2023-04-10T12:55:18.862Z,8.48
2023-04-10T12:58:27.971Z,7.25
2023-04-10T13:01:32.553Z,7.40
2023-04-10T13:04:37.059Z,9.80
2023-04-10T13:07:42.300Z,6.82
2023-04-10T13:10:47.152Z,6.43
2023-04-10T13:13:52.619Z,8.40
2023-04-10T13:16:56.820Z,8.55
2023-04-10T13:20:01.199Z,9.30
2023-04-10T13:23:07.950Z,6.15
2023-04-10T13:26:14.101Z,9.82
2023-04-10T13:29:18.521Z,6.53
2023-04-10T13:32:22.961Z,7.03
2023-04-10T13:35:27.359Z,5.13
2023-04-10T13:38:31.916Z,7.05
2023-04-10T13:41:36.133Z,5.72
2023-04-10T13:44:40.538Z,8.05
2023-04-10T13:47:44.534Z,8.80
2023-04-10T13:50:49.426Z,5.90
2023-04-10T13:53:53.611Z,6.25
2023-04-10T13:56:59.269Z,6.43
2023-04-10T14:00:04.788Z,5.35
2023-04-10T14:03:12.178Z,4.78
2023-04-10T14:06:17.637Z,5.78
2023-04-10T14:09:22.254Z,8.82
2023-04-10T14:12:27.332Z,6.07
2023-04-10T14:15:31.649Z,5.47
2023-04-10T14:18:37.361Z,5.95
2023-04-10T14:21:43.862Z,9.50
2023-04-10T14:25:11.808Z,8.82
2023-04-10T14:28:17.666Z,6.60
2023-04-10T14:31:22.401Z,5.60
2023-04-10T14:34:27.180Z,5.97
2023-04-10T14:37:32.268Z,4.82
2023-04-10T14:40:37.283Z,5.82
2023-04-10T14:43:43.580Z,6.18
2023-04-10T14:46:48.811Z,5.30
2023-04-10T14:49:53.318Z,5.05
2023-04-10T14:53:00.176Z,5.70
2023-04-10T14:56:15.733Z,6.00
2023-04-10T14:59:20.400Z,8.15
2023-04-10T15:02:24.834Z,7.38
2023-04-10T15:05:29.873Z,6.47
2023-04-10T15:08:34.264Z,7.60
2023-04-10T15:11:38.431Z,5.72
2023-04-10T15:14:43.042Z,6.13
2023-04-10T15:17:47.442Z,8.15
2023-04-10T15:20:55.978Z,8.93
2023-04-10T15:24:01.110Z,5.80
2023-04-10T15:27:10.028Z,8.48
2023-04-10T15:30:14.546Z,8.43
2023-04-10T15:33:19.506Z,10.15
2023-04-10T15:36:23.984Z,6.72
2023-04-10T15:39:30.844Z,10.02
2023-04-10T15:42:36.195Z,9.13
2023-04-10T15:45:40.448Z,8.82
2023-04-10T15:48:46.053Z,10.48
2023-04-10T15:51:50.500Z,10.65
2023-04-10T15:54:54.790Z,11.65
2023-04-10T15:58:00.975Z,9.57
2023-04-10T16:01:07.041Z,9.75
2023-04-10T16:04:11.317Z,10.88
2023-04-10T16:07:16.528Z,9.70
2023-04-10T16:10:21.380Z,7.70
2023-04-10T16:13:26.026Z,10.43
2023-04-10T16:16:30.956Z,8.13
2023-04-10T16:19:35.321Z,7.85
2023-04-10T16:22:39.317Z,8.50
2023-04-10T16:25:43.617Z,8.63
2023-04-10T16:28:47.973Z,11.45
2023-04-10T16:31:52.212Z,7.45
2023-04-10T16:34:57.021Z,7.53
2023-04-10T16:38:01.316Z,7.90
2023-04-10T16:41:06.341Z,10.18
2023-04-10T16:44:10.762Z,7.93
2023-04-10T16:50:19.058Z,7.60
2023-04-10T16:53:23.512Z,8.63
2023-04-10T16:56:27.886Z,10.15
2023-04-10T16:59:32.920Z,7.90
2023-04-10T17:02:37.073Z,8.27
2023-04-10T17:05:41.485Z,5.95
2023-04-10T17:08:49.715Z,5.78
2023-04-10T17:11:54.097Z,7.35
2023-04-10T17:14:59.061Z,9.30
2023-04-10T17:18:03.620Z,6.00
2023-04-10T17:21:12.772Z,7.50
2023-04-10T17:24:17.453Z,7.30
2023-04-10T17:27:21.852Z,6.72
2023-04-10T17:30:26.478Z,8.35
2023-04-10T17:33:30.714Z,8.38
2023-04-10T17:36:34.868Z,6.75
2023-04-10T17:39:39.416Z,11.70
2023-04-10T17:42:43.830Z,8.90
2023-04-10T17:48:52.148Z,7.28
2023-04-10T17:51:56.722Z,5.45
2023-04-10T17:55:02.283Z,8.38
2023-04-10T17:58:07.122Z,11.63
2023-04-10T18:01:11.592Z,10.52
2023-04-10T18:04:16.434Z,6.57
2023-04-10T18:07:20.980Z,6.78
2023-04-10T18:10:25.603Z,8.02
2023-04-10T18:13:30.262Z,7.57
2023-04-10T18:22:43.584Z,9.38
2023-04-10T18:25:55.556Z,8.07
2023-04-10T18:29:02.456Z,8.68
2023-04-10T18:32:07.706Z,8.93
2023-04-10T18:35:12.205Z,6.05
2023-04-10T18:38:16.863Z,7.40
2023-04-10T18:41:21.122Z,7.78
2023-04-10T18:44:25.291Z,7.05
2023-04-10T18:47:29.979Z,7.57
2023-04-10T18:50:37.922Z,7.15
2023-04-10T18:53:42.204Z,7.10
2023-04-10T18:56:46.767Z,6.70
2023-04-10T18:59:51.371Z,9.95
2023-04-10T19:02:55.709Z,8.52
2023-04-10T19:06:00.596Z,8.90
2023-04-10T19:09:05.264Z,7.20
2023-04-10T19:12:10.449Z,11.95
2023-04-10T19:15:15.867Z,6.75
2023-04-10T19:18:20.160Z,8.27
2023-04-10T19:24:29.092Z,8.88
2023-04-10T19:27:33.545Z,8.27
2023-04-10T19:30:37.834Z,6.53
2023-04-10T19:33:42.102Z,6.57
2023-04-10T19:36:46.713Z,6.20
2023-04-10T19:39:50.905Z,6.00
2023-04-10T19:42:56.374Z,4.43
2023-04-10T19:46:03.757Z,3.95
2023-04-10T19:49:08.411Z,3.42
2023-04-10T19:52:12.848Z,7.57
2023-04-10T19:55:18.986Z,4.18
2023-04-10T19:58:35.992Z,4.40
2023-04-10T20:01:44.744Z,5.90
2023-04-10T20:04:49.488Z,5.05
2023-04-10T20:07:53.997Z,8.48
2023-04-10T20:10:58.470Z,5.68
2023-04-10T20:14:03.089Z,5.28
2023-04-10T20:17:07.657Z,5.93
2023-04-10T20:20:13.123Z,11.02
2023-04-10T20:23:17.222Z,4.57
2023-04-10T20:26:21.915Z,6.70
2023-04-10T20:29:26.642Z,4.10
2023-04-10T20:32:31.106Z,5.47
2023-04-10T20:35:35.791Z,5.05
2023-04-10T20:38:40.556Z,4.90
2023-04-10T20:41:44.892Z,5.00
2023-04-10T20:44:49.805Z,4.75
2023-04-10T20:47:54.411Z,3.95
2023-04-10T20:50:58.590Z,4.18
2023-04-10T20:54:04.421Z,3.92
2023-04-10T20:57:08.870Z,4.80
2023-04-10T21:03:17.732Z,5.20
2023-04-10T21:06:24.656Z,3.92
2023-04-10T21:09:28.806Z,4.22
2023-04-10T21:15:37.437Z,4.40
2023-04-10T21:18:41.713Z,3.85
2023-04-10T21:21:46.424Z,5.00
2023-04-10T21:24:50.951Z,5.15
2023-04-10T21:27:54.958Z,7.95
2023-04-10T21:30:59.371Z,4.97
2023-04-10T21:34:03.842Z,7.13
2023-04-10T21:37:08.208Z,4.55
2023-04-10T21:43:16.634Z,8.65
2023-04-10T21:46:21.289Z,6.03
2023-04-10T21:49:25.777Z,7.18
2023-04-10T21:52:30.132Z,7.90
2023-04-10T21:55:34.283Z,8.38
2023-04-10T21:58:38.718Z,8.10
2023-04-10T22:04:54.453Z,8.55
2023-04-10T22:07:59.322Z,8.70
2023-04-10T22:11:05.862Z,10.85
2023-04-10T22:14:17.075Z,8.18
2023-04-10T22:17:23.633Z,10.60
2023-04-10T22:20:28.296Z,10.23
2023-04-10T22:23:32.877Z,10.52
2023-04-10T22:29:45.413Z,7.57
2023-04-10T22:32:58.691Z,7.45
2023-04-10T22:36:03.847Z,7.90
2023-04-10T22:39:08.528Z,8.23
2023-04-10T22:42:12.768Z,7.32
2023-04-10T22:45:17.064Z,11.32
2023-04-10T22:48:21.144Z,6.68
2023-04-10T22:51:26.761Z,8.40
2023-04-10T22:54:31.397Z,7.70
2023-04-10T22:57:35.819Z,7.88
2023-04-10T23:00:40.175Z,6.82
2023-04-10T23:03:45.060Z,6.82
2023-04-10T23:06:49.488Z,10.70
2023-04-10T23:09:53.982Z,5.45
2023-04-10T23:12:58.314Z,6.30
2023-04-10T23:16:02.795Z,5.93
2023-04-10T23:22:11.448Z,8.38
2023-04-10T23:25:16.063Z,10.40
2023-04-10T23:28:21.443Z,8.20
2023-04-10T23:31:25.692Z,7.57
2023-04-10T23:34:29.823Z,7.95
2023-04-10T23:37:35.269Z,6.40
2023-04-10T23:40:39.668Z,8.57
2023-04-10T23:43:44.938Z,6.88
2023-04-10T23:46:50.817Z,9.88
2023-04-10T23:49:55.782Z,8.50
2023-04-10T23:53:00.638Z,8.77
2023-04-10T23:56:05.255Z,8.50
2023-04-10T23:59:09.777Z,10.88
